Flight Track Log - Related Links

Times and Time Zones

All times are in EDT time to prevent confusion due to time zone crossing. See the GGA1 flight status page for this flight to view local times or setup timezone preferences in your user account.

Time Position Orientation Groundspeed Altitude Reporting Facility
EDT Latitude Longitude Course Direction KTS MPH feet Rate Location/Type
Tue 10:10:55 AM 36.6481 -76.3633 249° West 152 175 1,200  Level Washington Center
Tue 10:11:13 AM 36.6417 -76.3842 249° West 172 198 1,200 1,139 Level Washington Center
Tue 10:12:14 AM 36.6203 -76.4408 245° Southwest 186 214 2,700 1,472 Climbing Washington Center
Tue 10:12:59 AM 36.6222 -76.4822 273° West 183 211 3,800 1,770 Climbing Washington Center
Tue 10:13:15 AM 36.6242 -76.5056 276° West 173 199 4,500 2,164 Climbing Washington Center
Tue 10:14:00 AM 36.6300 -76.5392 282° West 168 193 6,000 2,361 Climbing Washington Center
Tue 10:14:16 AM 36.6319 -76.5600 277° West 154 177 6,900 2,172 Climbing Washington Center
Tue 10:14:58 AM 36.6358 -76.5911 279° West 153 176 8,100 1,806 Climbing Washington Center
Tue 10:15:59 AM 36.6397 -76.6481 275° West 158 182 10,000 1,869 Climbing Washington Center
Tue 10:17:00 AM 36.6453 -76.7078 277° West 168 193 11,900 1,916 Climbing Washington Center
Tue 10:17:58 AM 36.6572 -76.7647 285° West 173 199 13,800 1,881 Climbing Washington Center
Tue 10:18:58 AM 36.6714 -76.8297 285° West 178 205 15,600 1,082 Climbing Washington Center
Tue 10:20:00 AM 36.6872 -76.9025 285° West 191 220 16,000 1,073 Climbing Washington Center
Tue 10:21:01 AM 36.7092 -76.9781 290° West 220 253 17,800 1,576 Climbing Washington Center
Tue 10:21:58 AM 36.7086 -77.0453 269° West 220 253 19,100 1,128 Climbing Washington Center
Tue 10:22:58 AM 36.6744 -77.1069 235° Southwest 201 231 20,000 446 Climbing Washington Center
Tue 10:23:59 AM 36.6442 -77.1761 241° Southwest 232 267 20,000  Level Washington Center
Tue 10:24:59 AM 36.6097 -77.2558 242° Southwest 256 295 20,000  Level Washington Center
Tue 10:26:00 AM 36.5733 -77.3272 238° Southwest 261 300 20,000  Level Washington Center
Tue 10:26:58 AM 36.5367 -77.4067 240° Southwest 261 300 20,000  Level Washington Center
Tue 10:27:59 AM 36.4981 -77.4806 237° Southwest 266 306 20,000  Level Washington Center
Tue 10:28:59 AM 36.4611 -77.5625 241° Southwest 271 312 20,000  Level Washington Center
Tue 10:30:00 AM 36.4200 -77.6544 241° Southwest 271 312 20,000  Level Washington Center
Tue 10:31:00 AM 36.3856 -77.7206 237° Southwest 271 312 20,000  Level Washington Center
Tue 10:31:58 AM 36.3486 -77.8019 241° Southwest 271 312 20,000  Level Washington Center
Tue 10:32:59 AM 36.3117 -77.8808 240° Southwest 271 312 20,000  Level Washington Center
Tue 10:33:59 AM 36.2725 -77.9597 238° Southwest 271 312 20,000  Level Washington Center
Tue 10:35:00 AM 36.2353 -78.0408 240° Southwest 271 312 20,000  Level Washington Center
Tue 10:35:58 AM 36.1983 -78.1169 239° Southwest 271 312 20,000  Level Washington Center
Tue 10:36:58 AM 36.1611 -78.1956 240° Southwest 271 312 20,000  Level Washington Center
Tue 10:37:58 AM 36.1197 -78.2764 238° Southwest 271 312 20,000  Level Washington Center
Tue 10:38:59 AM 36.0781 -78.3650 240° Southwest 271 312 20,000  Level Washington Center
Tue 10:39:58 AM 36.0408 -78.4433 240° Southwest 271 312 20,000  Level Washington Center
Tue 10:40:58 AM 36.0014 -78.5214 238° Southwest 271 312 20,000  Level Washington Center
Tue 10:41:59 AM 35.9639 -78.6022 240° Southwest 271 312 20,000  Level Washington Center
Tue 10:43:00 AM 35.9242 -78.6828 239° Southwest 271 312 20,000 -248 Level Washington Center
Tue 10:44:00 AM 35.8825 -78.7606 237° Southwest 271 312 19,500 -750 Descending Washington Center
Tue 10:45:00 AM 35.8611 -78.8547 254° West 276 318 18,500 -966 Descending Washington Center
Tue 10:45:58 AM 35.8625 -78.9572 271° West 281 323 17,600 -1,017 Descending Washington Center
Tue 10:46:58 AM 35.8533 -79.0567 264° West 296 341 16,500 -1,049 Descending Washington Center
Tue 10:48:00 AM 35.8455 -79.1416 264° West  Level FlightAware Approximate
Tue 10:50:04 AM 35.8319 -79.3581 245° Southwest 289 333 13,300  Level Washington Center
Tue 10:52:00 AM 35.7841 -79.5065 245° Southwest  Level Estimated
Tue 10:55:00 AM 35.7594 -79.7054 245° Southwest  Level FlightAware Approximate
Tue 10:58:17 AM 35.6300 -80.0989 238° Southwest 273 314 6,000  Level Atlanta Center
Tue 10:59:00 AM 35.6094 -80.0426 248° West  Level Estimated
Tue 11:00:00 AM 35.5887 -80.1210 252° West  Level FlightAware Approximate
Tue 11:01:00 AM 35.5629 -80.1971 270° West  Level Estimated
Tue 11:02:00 AM 35.5371 -80.2731 244° Southwest  Level Estimated
Tue 11:03:00 AM 35.5112 -80.3491 238° Southwest  Level Estimated

Login

Don't have an account? Register now (free) for customized features, flight alerts, and more!